Time;durP1;ratioP1;P1;durP2;ratioP2;P2;SDS_P1;SDS_P2;PMS_P1;PMS_P2;Temp;Humidity;BMP_temperature;BMP_pressure;BME280_temperature;BME280_humidity;BME280_pressure;Samples;Min_cycle;Max_cycle;Signal;HPM_P1;HPM_P2
2022/08/10 00:01:30;;;;;;;2.33;1.17;;;20.90;99.90;;;;;;5062373;28;20483;-82
2022/08/10 00:03:57;;;;;;;3.97;1.50;;;20.90;99.90;;;;;;5056163;28;20483;-82
2022/08/10 00:06:25;;;;;;;3.50;1.73;;;20.80;99.90;;;;;;5064942;28;20531;-83
2022/08/10 00:08:52;;;;;;;5.20;2.13;;;20.80;99.90;;;;;;5065420;28;20903;-82
2022/08/10 00:11:19;;;;;;;5.33;1.60;;;20.80;99.90;;;;;;5066086;28;20453;-82
2022/08/10 00:13:46;;;;;;;3.53;1.47;;;20.80;99.90;;;;;;5064135;28;20547;-82
2022/08/10 00:16:13;;;;;;;4.07;1.43;;;20.80;99.90;;;;;;5065659;28;20451;-82
2022/08/10 00:18:40;;;;;;;2.83;1.70;;;20.70;99.90;;;;;;5062763;28;20885;-84
2022/08/10 00:21:08;;;;;;;3.00;1.93;;;20.70;99.90;;;;;;5063277;28;20534;-84
2022/08/10 00:23:38;;;;;;;4.63;2.37;;;20.70;99.90;;;;;;5062397;28;20903;-83
2022/08/10 00:26:05;;;;;;;3.17;1.70;;;20.60;99.90;;;;;;5063184;28;20448;-82
2022/08/10 00:28:32;;;;;;;3.00;1.70;;;20.60;99.90;;;;;;5062570;28;20452;-84
2022/08/10 00:30:59;;;;;;;3.93;1.77;;;20.60;99.90;;;;;;5061724;28;20546;-84
2022/08/10 00:33:26;;;;;;;3.23;1.60;;;20.50;99.90;;;;;;5061923;28;20494;-84
2022/08/10 00:35:53;;;;;;;3.60;1.90;;;20.50;99.90;;;;;;5062195;28;20510;-83
2022/08/10 00:38:20;;;;;;;3.33;1.80;;;20.50;99.90;;;;;;5061986;28;20475;-83
2022/08/10 00:40:48;;;;;;;2.80;1.70;;;20.50;99.90;;;;;;5061355;28;20894;-82
2022/08/10 00:43:16;;;;;;;3.10;1.97;;;20.40;99.90;;;;;;5060567;28;20476;-81
2022/08/10 00:45:42;;;;;;;4.83;2.10;;;20.40;99.90;;;;;;5054309;28;20506;-84
2022/08/10 00:48:09;;;;;;;2.90;1.43;;;20.40;99.90;;;;;;5062049;28;20812;-83
2022/08/10 00:50:36;;;;;;;3.50;2.13;;;20.40;99.90;;;;;;5061806;28;20535;-83
2022/08/10 00:53:03;;;;;;;4.83;1.90;;;20.30;99.90;;;;;;5060562;28;20549;-83
2022/08/10 00:55:30;;;;;;;2.90;1.70;;;20.30;99.90;;;;;;5061548;28;20516;-83
2022/08/10 00:57:59;;;;;;;2.80;1.43;;;20.30;99.90;;;;;;5061118;28;20530;-84
2022/08/10 01:00:26;;;;;;;4.27;1.60;;;20.30;99.90;;;;;;5061387;28;20443;-82
2022/08/10 01:02:53;;;;;;;5.00;2.17;;;20.20;99.90;;;;;;5059434;28;20559;-83
2022/08/10 01:05:21;;;;;;;2.87;1.80;;;20.20;99.90;;;;;;5061571;28;20957;-83
2022/08/10 01:08:10;;;;;;;3.37;2.03;;;20.20;99.90;;;;;;5061680;28;20471;-84
2022/08/10 01:10:49;;;;;;;3.70;1.87;;;20.20;99.90;;;;;;5061380;28;20482;-84
2022/08/10 01:13:24;;;;;;;4.30;2.03;;;20.10;99.90;;;;;;5059992;28;20574;-82
2022/08/10 01:15:57;;;;;;;3.43;1.93;;;20.10;99.90;;;;;;5062044;28;20474;-84
2022/08/10 01:18:43;;;;;;;4.93;2.10;;;20.00;99.90;;;;;;5061265;28;20456;-84
2022/08/10 01:21:57;;;;;;;3.93;1.77;;;20.00;99.90;;;;;;5061418;28;20532;-81
2022/08/10 01:24:51;;;;;;;3.43;1.97;;;20.00;99.90;;;;;;4999272;28;20565;-82
2022/08/10 01:27:28;;;;;;;3.37;1.90;;;19.90;99.90;;;;;;4999745;28;20522;-82
2022/08/10 01:30:03;;;;;;;3.17;1.90;;;19.90;99.90;;;;;;5042160;28;20530;-83
2022/08/10 01:32:42;;;;;;;2.70;1.57;;;19.80;99.90;;;;;;5061842;28;20506;-82
2022/08/10 01:35:15;;;;;;;4.67;1.70;;;19.80;99.90;;;;;;5060028;28;20454;-84
2022/08/10 01:37:49;;;;;;;3.40;2.20;;;19.80;99.90;;;;;;5061271;28;20460;-82
2022/08/10 01:40:21;;;;;;;4.00;2.13;;;19.70;99.90;;;;;;5061362;28;20537;-82
2022/08/10 01:42:50;;;;;;;3.80;1.90;;;19.70;99.90;;;;;;5061225;28;20826;-81
2022/08/10 01:45:22;;;;;;;3.10;2.00;;;19.70;99.90;;;;;;5061304;28;20495;-82
2022/08/10 01:50:44;;;;;;;3.07;2.10;;;19.60;99.90;;;;;;5060156;28;21001;-83
2022/08/10 01:53:16;;;;;;;3.77;2.47;;;19.60;99.90;;;;;;5060340;28;20585;-83
2022/08/10 01:55:44;;;;;;;4.10;2.07;;;19.60;99.90;;;;;;5061611;28;20436;-82
2022/08/10 01:58:13;;;;;;;3.50;2.23;;;19.60;99.90;;;;;;5061554;28;20939;-82
2022/08/10 02:00:44;;;;;;;4.97;2.63;;;19.60;99.90;;;;;;5061177;28;20452;-83
2022/08/10 02:03:13;;;;;;;4.17;2.33;;;19.50;99.90;;;;;;5060953;28;20487;-83
2022/08/10 02:05:42;;;;;;;6.20;2.63;;;19.50;99.90;;;;;;5061604;28;20511;-83
2022/08/10 02:08:13;;;;;;;2.83;2.20;;;19.50;99.90;;;;;;5061741;28;20472;-83
2022/08/10 02:10:42;;;;;;;6.00;1.90;;;19.50;99.90;;;;;;5061540;28;20507;-83
2022/08/10 02:13:10;;;;;;;3.80;2.10;;;19.40;99.90;;;;;;5065598;28;20487;-83
2022/08/10 02:15:42;;;;;;;5.53;2.37;;;19.40;99.90;;;;;;5067343;28;20446;-83
2022/08/10 02:18:09;;;;;;;5.20;3.10;;;19.40;99.90;;;;;;5065946;28;20436;-84
2022/08/10 02:20:40;;;;;;;5.67;2.43;;;19.30;99.90;;;;;;5061778;28;20478;-83
2022/08/10 02:23:12;;;;;;;5.03;2.10;;;19.30;99.90;;;;;;5060752;28;20507;-82
2022/08/10 02:25:41;;;;;;;5.93;2.20;;;19.30;99.90;;;;;;5061958;28;20562;-83
2022/08/10 02:28:09;;;;;;;3.70;2.30;;;19.20;99.90;;;;;;5061208;28;20538;-84
2022/08/10 02:30:37;;;;;;;3.07;2.00;;;19.20;99.90;;;;;;5060892;28;20486;-82
2022/08/10 02:33:06;;;;;;;3.40;2.13;;;19.10;99.90;;;;;;5061119;28;20477;-84
2022/08/10 02:35:35;;;;;;;3.17;2.10;;;19.10;99.90;;;;;;5061293;28;20444;-83
2022/08/10 02:38:05;;;;;;;5.20;3.10;;;19.00;99.90;;;;;;5061074;28;20523;-82
2022/08/10 02:40:36;;;;;;;4.87;2.50;;;19.00;99.90;;;;;;5060116;28;20543;-83
2022/08/10 02:43:09;;;;;;;4.67;2.60;;;18.90;99.90;;;;;;5061244;28;20572;-83
2022/08/10 02:45:42;;;;;;;4.20;2.63;;;18.90;99.90;;;;;;5061039;28;20543;-83
2022/08/10 02:48:18;;;;;;;5.40;2.63;;;18.80;99.90;;;;;;5061513;28;20447;-82
2022/08/10 02:50:52;;;;;;;3.70;2.50;;;18.80;99.90;;;;;;5061086;28;20461;-83
2022/08/10 02:53:23;;;;;;;4.40;2.80;;;18.70;99.90;;;;;;5060516;28;21085;-83
2022/08/10 02:55:57;;;;;;;4.57;2.70;;;18.70;99.90;;;;;;5061002;28;20441;-84
2022/08/10 02:58:28;;;;;;;5.47;2.70;;;18.70;99.90;;;;;;5041617;28;20900;-84
2022/08/10 03:00:57;;;;;;;5.50;2.60;;;18.70;99.90;;;;;;5058060;28;20483;-84
2022/08/10 03:03:28;;;;;;;4.60;2.37;;;18.60;99.90;;;;;;5059736;28;20503;-83
2022/08/10 03:05:59;;;;;;;4.57;2.90;;;18.60;99.90;;;;;;5060697;28;21021;-82
2022/08/10 03:08:31;;;;;;;4.40;2.97;;;18.60;99.90;;;;;;5060823;28;20936;-82
2022/08/10 03:11:01;;;;;;;3.83;2.83;;;18.60;99.90;;;;;;5060556;28;20876;-83
2022/08/10 03:13:31;;;;;;;3.50;2.70;;;18.50;99.90;;;;;;5059263;28;20511;-86
2022/08/10 03:16:00;;;;;;;5.10;2.70;;;18.50;99.90;;;;;;5060468;28;20477;-83
2022/08/10 03:18:32;;;;;;;5.50;2.70;;;18.50;99.90;;;;;;5060446;28;20986;-83
2022/08/10 03:20:59;;;;;;;4.50;2.77;;;18.50;99.90;;;;;;5059971;28;20497;-83
2022/08/10 03:23:27;;;;;;;3.87;2.60;;;18.40;99.90;;;;;;5060458;28;20475;-81
2022/08/10 03:25:57;;;;;;;4.40;2.80;;;18.40;99.90;;;;;;5061346;28;21110;-83
2022/08/10 03:28:27;;;;;;;4.37;2.50;;;18.40;99.90;;;;;;5060829;28;20889;-82
2022/08/10 03:30:55;;;;;;;4.13;3.00;;;18.40;99.90;;;;;;5060464;28;20463;-83
2022/08/10 03:33:24;;;;;;;4.07;2.87;;;18.30;99.90;;;;;;5060231;28;20473;-82
2022/08/10 03:35:52;;;;;;;4.90;2.90;;;18.30;99.90;;;;;;5060871;28;20526;-82
2022/08/10 03:38:19;;;;;;;4.37;2.97;;;18.30;99.90;;;;;;5060358;28;20851;-84
2022/08/10 03:40:47;;;;;;;4.00;2.93;;;18.30;99.90;;;;;;5060262;28;20545;-83
2022/08/10 03:43:19;;;;;;;4.43;2.80;;;18.20;99.90;;;;;;5059745;28;20550;-82
2022/08/10 03:45:51;;;;;;;5.83;3.20;;;18.20;99.90;;;;;;5060288;28;21066;-82
2022/08/10 03:48:19;;;;;;;6.73;3.17;;;18.20;99.90;;;;;;5059910;28;20457;-82
2022/08/10 03:50:47;;;;;;;3.90;2.67;;;18.20;99.90;;;;;;5059185;28;20530;-82
2022/08/10 03:53:16;;;;;;;4.13;2.73;;;18.20;99.90;;;;;;5060590;28;20496;-82
2022/08/10 03:55:43;;;;;;;5.30;3.17;;;18.20;99.90;;;;;;5064445;28;20444;-83
2022/08/10 03:58:10;;;;;;;4.30;3.20;;;18.10;99.90;;;;;;5064136;28;20451;-83
2022/08/10 04:00:38;;;;;;;4.10;3.10;;;18.10;99.90;;;;;;5063744;28;20514;-83
2022/08/10 04:03:06;;;;;;;6.07;3.50;;;18.10;99.90;;;;;;5061712;28;20476;-83
2022/08/10 04:05:33;;;;;;;3.80;2.87;;;18.00;99.90;;;;;;5058419;28;20541;-83
2022/08/10 04:08:01;;;;;;;5.20;3.30;;;18.00;99.90;;;;;;5062716;28;20496;-82
2022/08/10 04:10:29;;;;;;;5.07;3.30;;;18.00;99.90;;;;;;5058241;28;20465;-81
2022/08/10 04:12:56;;;;;;;4.50;2.93;;;18.00;99.90;;;;;;5062650;28;20505;-82
2022/08/10 04:15:24;;;;;;;5.30;3.07;;;18.00;99.90;;;;;;5063264;28;20494;-83
2022/08/10 04:17:51;;;;;;;5.53;3.60;;;18.00;99.90;;;;;;5063520;28;20457;-84
2022/08/10 04:20:25;;;;;;;5.73;3.30;;;18.00;99.90;;;;;;5061857;28;20457;-81
2022/08/10 04:22:56;;;;;;;4.73;3.10;;;17.90;99.90;;;;;;5062721;28;20503;-80
2022/08/10 04:25:24;;;;;;;4.57;3.50;;;17.90;99.90;;;;;;5062912;28;20562;-80
2022/08/10 04:27:54;;;;;;;8.80;3.60;;;17.80;99.90;;;;;;5064066;28;20845;-82
2022/08/10 04:30:21;;;;;;;4.50;3.00;;;17.80;99.90;;;;;;5062623;28;20445;-82
2022/08/10 04:32:52;;;;;;;6.27;3.87;;;17.80;99.90;;;;;;5061685;28;20702;-81
2022/08/10 04:35:20;;;;;;;4.33;3.27;;;17.80;99.90;;;;;;5062333;28;20461;-81
2022/08/10 04:37:49;;;;;;;7.00;3.57;;;17.90;99.90;;;;;;5063560;28;20629;-83
2022/08/10 04:40:18;;;;;;;5.00;3.40;;;17.90;99.90;;;;;;5062556;28;20459;-82
2022/08/10 04:42:46;;;;;;;4.10;3.50;;;17.90;99.90;;;;;;5062159;28;20477;-81
2022/08/10 04:45:15;;;;;;;5.47;3.03;;;17.90;99.90;;;;;;5063529;28;20487;-82
2022/08/10 04:47:42;;;;;;;5.43;4.27;;;17.90;99.90;;;;;;5062827;28;20454;-82
2022/08/10 04:50:09;;;;;;;4.57;3.60;;;18.00;99.90;;;;;;5063500;28;20533;-83
2022/08/10 04:52:36;;;;;;;3.97;3.23;;;18.00;99.90;;;;;;5060007;28;20513;-83
2022/08/10 04:55:03;;;;;;;4.80;3.30;;;18.10;99.90;;;;;;5057839;28;20481;-82
2022/08/10 04:57:31;;;;;;;7.23;3.33;;;18.10;99.90;;;;;;5063284;28;21065;-82
2022/08/10 04:59:58;;;;;;;4.90;3.47;;;18.20;99.90;;;;;;5063683;28;20518;-84
2022/08/10 05:02:27;;;;;;;7.30;3.43;;;18.20;99.90;;;;;;5064716;28;20530;-82
2022/08/10 05:04:53;;;;;;;5.10;2.83;;;18.30;99.90;;;;;;5063627;28;20958;-80
2022/08/10 05:07:20;;;;;;;4.80;3.13;;;18.30;99.90;;;;;;5067895;28;20549;-83
2022/08/10 05:09:49;;;;;;;7.20;3.77;;;18.40;99.90;;;;;;5063486;28;20475;-82
2022/08/10 05:12:15;;;;;;;4.00;2.80;;;18.40;99.90;;;;;;5062773;28;20458;-83
2022/08/10 05:14:42;;;;;;;4.27;3.00;;;18.40;99.90;;;;;;5062272;28;20449;-84
2022/08/10 05:17:09;;;;;;;4.57;3.10;;;18.50;99.90;;;;;;5058985;28;20974;-83
2022/08/10 05:19:37;;;;;;;4.63;3.50;;;18.50;99.90;;;;;;5062677;28;20491;-81
2022/08/10 05:22:05;;;;;;;4.20;3.37;;;18.60;99.90;;;;;;5061838;28;20452;-83
2022/08/10 05:24:32;;;;;;;4.50;3.33;;;18.60;99.90;;;;;;5060290;28;20542;-84
2022/08/10 05:26:59;;;;;;;5.00;3.30;;;18.70;99.90;;;;;;5061179;28;20514;-82
2022/08/10 05:29:25;;;;;;;3.87;2.70;;;18.80;99.90;;;;;;5060845;28;20443;-83
2022/08/10 05:31:53;;;;;;;4.93;3.13;;;18.80;99.90;;;;;;5062162;28;20458;-82
2022/08/10 05:34:25;;;;;;;6.80;3.40;;;18.80;99.90;;;;;;5060551;28;20479;-84
2022/08/10 05:36:54;;;;;;;5.33;4.10;;;18.90;99.90;;;;;;5062296;28;20439;-84
2022/08/10 05:39:22;;;;;;;5.57;4.00;;;18.90;99.90;;;;;;5062477;28;20635;-82
2022/08/10 05:41:52;;;;;;;6.03;3.87;;;19.00;99.90;;;;;;5065403;28;20454;-83
2022/08/10 05:44:20;;;;;;;5.30;3.23;;;19.00;99.90;;;;;;5063710;28;20485;-82
2022/08/10 05:46:47;;;;;;;4.20;3.23;;;19.10;99.90;;;;;;5060664;28;20566;-83
2022/08/10 05:49:14;;;;;;;7.87;3.70;;;19.10;99.90;;;;;;5061524;28;21025;-83
2022/08/10 05:51:41;;;;;;;6.90;3.40;;;19.10;99.90;;;;;;5056310;28;20535;-80
2022/08/10 05:54:14;;;;;;;5.00;3.30;;;19.20;99.90;;;;;;5054971;28;20528;-79
2022/08/10 05:56:49;;;;;;;4.77;2.90;;;19.20;99.90;;;;;;5053811;28;20478;-80
2022/08/10 05:59:35;;;;;;;5.23;3.17;;;19.30;99.90;;;;;;5053181;28;20523;-79
2022/08/10 06:02:09;;;;;;;6.83;4.03;;;19.30;99.90;;;;;;5052645;28;21009;-81
2022/08/10 06:04:40;;;;;;;5.47;3.17;;;19.40;99.90;;;;;;5054075;28;20519;-80
2022/08/10 06:07:08;;;;;;;5.00;3.27;;;19.40;99.90;;;;;;5055133;28;20479;-83
2022/08/10 06:09:41;;;;;;;3.70;3.13;;;19.50;99.90;;;;;;5055789;28;20450;-81
2022/08/10 06:12:13;;;;;;;5.47;3.80;;;19.60;99.90;;;;;;5052886;28;20510;-78
2022/08/10 06:15:01;;;;;;;6.83;3.13;;;19.60;99.90;;;;;;5054489;28;20447;-81
2022/08/10 06:17:29;;;;;;;4.57;3.20;;;19.70;99.90;;;;;;5051675;28;20450;-81
2022/08/10 06:20:00;;;;;;;4.30;2.83;;;19.80;99.90;;;;;;5054917;28;20451;-83
2022/08/10 06:22:31;;;;;;;5.10;3.27;;;19.80;99.90;;;;;;5055430;28;20550;-81
2022/08/10 06:25:02;;;;;;;6.13;3.50;;;19.90;99.90;;;;;;5055454;28;20547;-80
2022/08/10 06:27:29;;;;;;;4.30;2.87;;;20.00;99.90;;;;;;5055158;28;20538;-81
2022/08/10 06:29:56;;;;;;;4.17;2.90;;;20.00;99.90;;;;;;5055392;28;20547;-81
2022/08/10 06:32:28;;;;;;;4.30;2.57;;;20.10;99.90;;;;;;5052951;28;20470;-78
2022/08/10 06:35:00;;;;;;;4.73;3.10;;;20.10;99.90;;;;;;5052356;28;20543;-81
2022/08/10 06:37:29;;;;;;;5.87;3.30;;;20.10;99.90;;;;;;5056204;28;20523;-81
2022/08/10 06:39:56;;;;;;;4.87;2.50;;;20.20;99.90;;;;;;5056151;28;20542;-81
2022/08/10 06:42:29;;;;;;;4.10;2.80;;;20.20;99.90;;;;;;5054927;28;20499;-80
2022/08/10 06:44:59;;;;;;;5.93;2.70;;;20.20;99.90;;;;;;5053114;28;20446;-78
2022/08/10 06:47:31;;;;;;;4.63;2.63;;;20.30;99.90;;;;;;5053801;28;20566;-78
2022/08/10 06:50:03;;;;;;;6.10;2.93;;;20.40;99.90;;;;;;5053732;28;20542;-79
2022/08/10 06:52:32;;;;;;;5.00;2.70;;;20.40;99.90;;;;;;5054136;28;20476;-81
2022/08/10 06:55:02;;;;;;;4.70;2.60;;;20.50;99.90;;;;;;5053540;28;20510;-80
2022/08/10 06:57:34;;;;;;;7.30;2.97;;;20.50;99.90;;;;;;5052184;28;20539;-79
2022/08/10 07:00:04;;;;;;;7.43;3.10;;;20.60;99.90;;;;;;5053957;28;20475;-82
2022/08/10 07:02:44;;;;;;;6.30;3.17;;;20.60;99.90;;;;;;5054689;28;20463;-81
2022/08/10 07:05:17;;;;;;;4.50;2.80;;;20.60;99.90;;;;;;5054860;28;20447;-80
2022/08/10 07:07:45;;;;;;;5.77;3.30;;;20.70;99.90;;;;;;5053591;28;20999;-80
2022/08/10 07:10:16;;;;;;;5.70;2.60;;;20.80;99.90;;;;;;5052837;28;20907;-81
2022/08/10 07:12:45;;;;;;;4.40;3.10;;;20.90;99.90;;;;;;5052686;28;20566;-78
2022/08/10 07:15:13;;;;;;;4.10;2.60;;;20.90;99.90;;;;;;5054865;28;20523;-80
2022/08/10 07:17:41;;;;;;;5.30;2.60;;;21.00;99.90;;;;;;5055136;28;20523;-81
2022/08/10 07:20:10;;;;;;;4.57;3.07;;;21.10;99.90;;;;;;5054363;28;20893;-80
2022/08/10 07:22:39;;;;;;;4.20;2.40;;;21.10;99.90;;;;;;5053705;28;20472;-80
2022/08/10 07:25:10;;;;;;;6.40;3.27;;;21.20;99.90;;;;;;5053733;28;20452;-81
2022/08/10 07:27:39;;;;;;;5.37;2.30;;;21.30;99.90;;;;;;5056209;28;20565;-79
2022/08/10 07:30:09;;;;;;;4.30;2.60;;;21.40;99.90;;;;;;5057932;28;20479;-79
2022/08/10 07:32:37;;;;;;;4.70;2.40;;;21.50;99.90;;;;;;5057884;28;20558;-79
2022/08/10 07:35:05;;;;;;;6.63;2.67;;;21.50;99.90;;;;;;5057099;28;20488;-80
2022/08/10 07:37:36;;;;;;;4.90;3.00;;;21.60;99.90;;;;;;5058609;28;21057;-78
2022/08/10 07:40:07;;;;;;;5.87;3.20;;;21.70;99.90;;;;;;5057466;28;21071;-78
2022/08/10 07:42:35;;;;;;;4.70;2.13;;;21.80;99.90;;;;;;5057719;28;20550;-80
2022/08/10 07:45:10;;;;;;;4.00;2.40;;;21.90;99.90;;;;;;5056477;28;20534;-77
2022/08/10 07:47:44;;;;;;;4.10;2.90;;;21.90;99.90;;;;;;5056680;28;20506;-79
2022/08/10 07:50:14;;;;;;;7.67;2.87;;;22.00;99.90;;;;;;5056507;28;20451;-81
2022/08/10 07:52:42;;;;;;;4.80;2.60;;;22.10;99.90;;;;;;5056680;28;20467;-80
2022/08/10 07:55:13;;;;;;;4.97;2.53;;;22.20;99.90;;;;;;5057434;28;20861;-77
2022/08/10 07:57:43;;;;;;;6.10;2.60;;;22.30;99.90;;;;;;5057055;28;20864;-79
2022/08/10 08:00:12;;;;;;;3.33;2.50;;;22.30;99.90;;;;;;5056083;28;20448;-81
2022/08/10 08:02:45;;;;;;;3.50;2.53;;;22.40;99.90;;;;;;5057854;28;20460;-77
2022/08/10 08:05:13;;;;;;;4.30;2.47;;;22.50;99.90;;;;;;5055280;28;20436;-79
2022/08/10 08:07:42;;;;;;;5.23;2.60;;;22.60;99.90;;;;;;5056559;28;20483;-79
2022/08/10 08:10:11;;;;;;;4.63;2.43;;;22.70;99.90;;;;;;5058272;28;20543;-78
2022/08/10 08:12:40;;;;;;;4.70;2.00;;;22.80;99.90;;;;;;5058490;28;20891;-82
2022/08/10 08:15:10;;;;;;;7.30;2.43;;;22.90;99.90;;;;;;5053900;28;20547;-80
2022/08/10 08:17:39;;;;;;;5.00;2.40;;;23.00;99.90;;;;;;5044941;28;20447;-79
2022/08/10 08:20:08;;;;;;;3.80;2.33;;;23.20;99.90;;;;;;5097239;22;20510;-77
2022/08/10 08:22:36;;;;;;;3.20;2.20;;;23.30;99.90;;;;;;5071979;28;20451;-78
2022/08/10 08:25:04;;;;;;;4.60;2.40;;;23.40;99.90;;;;;;5073685;28;20505;-79
2022/08/10 08:27:32;;;;;;;4.60;2.23;;;23.50;99.90;;;;;;5074058;28;20578;-78
2022/08/10 08:30:00;;;;;;;5.70;2.10;;;23.70;99.90;;;;;;5073900;28;20570;-79
2022/08/10 08:32:31;;;;;;;4.33;2.63;;;23.90;99.90;;;;;;5066094;28;20547;-77
2022/08/10 08:35:02;;;;;;;4.03;2.47;;;24.00;99.90;;;;;;5053392;28;20503;-78
2022/08/10 08:37:32;;;;;;;4.20;1.90;;;24.20;99.90;;;;;;5054694;28;20531;-78
2022/08/10 08:39:59;;;;;;;3.57;2.13;;;24.40;99.90;;;;;;5053998;28;20468;-78
2022/08/10 08:42:50;;;;;;;5.27;2.53;;;24.50;99.90;;;;;;5054677;28;20459;-79
2022/08/10 08:45:24;;;;;;;5.97;2.40;;;24.70;99.90;;;;;;5055765;28;20459;-78
2022/08/10 08:48:19;;;;;;;5.27;2.10;;;24.90;99.90;;;;;;5056535;28;20487;-78
2022/08/10 08:51:06;;;;;;;5.20;2.33;;;25.10;99.90;;;;;;5046929;28;20541;-77
2022/08/10 08:53:48;;;;;;;5.40;2.37;;;25.30;99.90;;;;;;5053506;28;20498;-78
2022/08/10 08:56:29;;;;;;;5.20;2.20;;;25.50;99.90;;;;;;5054606;28;20451;-78
2022/08/10 08:59:14;;;;;;;5.63;2.10;;;25.70;99.90;;;;;;5054906;28;20908;-79
2022/08/10 09:02:00;;;;;;;4.03;2.40;;;26.00;99.90;;;;;;5067755;28;20518;-78
2022/08/10 09:04:43;;;;;;;4.90;2.30;;;26.20;99.90;;;;;;5041384;28;20458;-79
2022/08/10 09:07:46;;;;;;;3.20;2.07;;;26.40;99.90;;;;;;5054149;28;20581;-78
2022/08/10 09:10:20;;;;;;;4.80;2.30;;;26.60;99.90;;;;;;5035476;28;20555;-78
2022/08/10 09:12:54;;;;;;;5.27;2.80;;;26.90;99.90;;;;;;5045182;28;20541;-79
2022/08/10 09:15:28;;;;;;;3.40;2.30;;;27.00;99.90;;;;;;5049455;28;20555;-79
2022/08/10 09:21:21;;;;;;;4.50;2.70;;;27.40;99.90;;;;;;5032020;28;20949;-77
2022/08/10 09:23:57;;;;;;;4.27;2.67;;;27.70;99.90;;;;;;5039067;28;20894;-78
2022/08/10 09:26:33;;;;;;;3.63;2.40;;;27.90;99.90;;;;;;5073536;28;20482;-79
2022/08/10 09:29:01;;;;;;;4.30;2.33;;;28.00;99.90;;;;;;5073752;28;20569;-79
2022/08/10 09:31:35;;;;;;;4.07;2.73;;;28.10;99.90;;;;;;5072996;28;20451;-76
2022/08/10 09:34:11;;;;;;;4.07;2.20;;;28.20;99.90;;;;;;5070982;28;20442;-79
2022/08/10 09:36:55;;;;;;;3.53;2.10;;;28.30;99.90;;;;;;5071425;28;20530;-79
2022/08/10 09:39:30;;;;;;;3.10;2.20;;;28.60;99.90;;;;;;5071376;28;20475;-78
2022/08/10 09:42:08;;;;;;;3.90;2.20;;;28.80;99.90;;;;;;5073314;28;20482;-79
2022/08/10 09:44:44;;;;;;;3.20;2.17;;;29.00;99.90;;;;;;5072649;28;20518;-79
2022/08/10 09:47:34;;;;;;;3.33;1.97;;;29.20;99.90;;;;;;5077951;28;20547;-79
2022/08/10 09:50:12;;;;;;;4.00;2.50;;;29.40;99.90;;;;;;5077204;28;21017;-79
2022/08/10 09:52:55;;;;;;;3.37;2.20;;;29.40;99.90;;;;;;5089912;28;20458;-79
2022/08/10 09:55:32;;;;;;;3.70;2.37;;;29.60;99.90;;;;;;5083164;28;20538;-79
2022/08/10 09:58:12;;;;;;;5.47;2.70;;;29.60;99.90;;;;;;5066058;28;20443;-79
2022/08/10 10:00:45;;;;;;;4.20;3.20;;;29.70;99.90;;;;;;5055010;28;20952;-80
2022/08/10 10:03:26;;;;;;;3.57;2.50;;;29.90;99.90;;;;;;5055008;28;20543;-80
2022/08/10 10:06:03;;;;;;;6.37;2.47;;;29.80;99.90;;;;;;5057868;28;20458;-79
2022/08/10 10:08:38;;;;;;;3.77;2.70;;;30.00;99.90;;;;;;5060846;28;20488;-80
2022/08/10 10:11:16;;;;;;;5.13;2.60;;;29.80;99.90;;;;;;5036956;28;20996;-79
2022/08/10 10:13:56;;;;;;;5.40;2.57;;;29.80;99.90;;;;;;5039286;28;20508;-81
2022/08/10 10:16:36;;;;;;;5.40;3.00;;;29.90;99.90;;;;;;5053983;28;21197;-78
2022/08/10 10:19:19;;;;;;;3.60;2.60;;;29.90;99.90;;;;;;5058099;28;20570;-79
2022/08/10 10:21:51;;;;;;;4.90;2.40;;;30.00;99.90;;;;;;5036025;28;20464;-79
2022/08/10 10:24:26;;;;;;;5.07;2.70;;;30.10;99.90;;;;;;5052129;28;20447;-78
2022/08/10 10:26:58;;;;;;;3.40;2.37;;;30.20;99.90;;;;;;5047238;28;20575;-78
2022/08/10 10:29:37;;;;;;;4.50;2.60;;;30.70;99.90;;;;;;5052249;28;20563;-78
2022/08/10 10:32:10;;;;;;;5.07;2.40;;;30.80;99.90;;;;;;5046975;28;20448;-79
2022/08/10 10:34:48;;;;;;;3.80;2.37;;;30.60;99.90;;;;;;5049341;28;20539;-79
2022/08/10 10:37:17;;;;;;;4.70;2.43;;;30.80;99.90;;;;;;5052938;28;20450;-79
2022/08/10 10:39:49;;;;;;;3.83;2.60;;;30.90;99.90;;;;;;5045275;28;20487;-79
2022/08/10 10:42:30;;;;;;;6.07;2.70;;;31.00;99.90;;;;;;5053348;28;20523;-78
2022/08/10 10:45:16;;;;;;;5.57;2.97;;;31.30;99.90;;;;;;5050723;28;20460;-79
2022/08/10 10:47:55;;;;;;;5.40;3.27;;;31.10;99.90;;;;;;5051796;28;21033;-79
2022/08/10 10:50:28;;;;;;;6.60;3.03;;;31.10;99.90;;;;;;5055854;28;20535;-79
2022/08/10 10:53:04;;;;;;;4.70;2.90;;;31.00;99.90;;;;;;5051377;28;22383;-79
2022/08/10 10:55:38;;;;;;;5.60;3.00;;;31.20;99.90;;;;;;5053409;28;20555;-78
2022/08/10 10:58:15;;;;;;;4.93;2.80;;;31.40;99.90;;;;;;5049864;28;20539;-80
2022/08/10 11:00:48;;;;;;;5.67;3.30;;;31.30;99.90;;;;;;5048273;28;20490;-79
2022/08/10 11:03:59;;;;;;;4.30;2.53;;;31.60;99.90;;;;;;5045587;28;20570;-78
2022/08/10 11:06:44;;;;;;;4.70;2.50;;;31.50;99.90;;;;;;5003889;28;20538;-79
2022/08/10 11:09:17;;;;;;;4.60;2.80;;;31.60;99.90;;;;;;5045812;28;20485;-79
2022/08/10 11:11:48;;;;;;;3.57;2.50;;;31.70;99.90;;;;;;5041726;28;20948;-79
2022/08/10 11:14:33;;;;;;;5.77;2.57;;;31.70;99.90;;;;;;5044239;28;20855;-78
2022/08/10 11:17:05;;;;;;;5.53;2.20;;;31.60;99.90;;;;;;5047770;28;20532;-78
2022/08/10 11:19:39;;;;;;;5.43;2.90;;;31.80;99.90;;;;;;5046656;28;20634;-78
2022/08/10 11:22:14;;;;;;;4.67;2.80;;;31.90;99.90;;;;;;5067016;28;20442;-79
2022/08/10 11:24:51;;;;;;;4.30;2.03;;;32.00;99.90;;;;;;5063170;28;20457;-77
2022/08/10 11:27:25;;;;;;;5.50;2.60;;;32.40;99.90;;;;;;5055493;28;20476;-79
2022/08/10 11:30:04;;;;;;;4.13;2.27;;;32.40;99.90;;;;;;5050154;28;20468;-78
2022/08/10 11:32:41;;;;;;;3.67;2.37;;;32.30;99.90;;;;;;5063706;28;20450;-78
2022/08/10 11:35:17;;;;;;;3.40;2.13;;;32.50;99.90;;;;;;5032338;28;20540;-78
2022/08/10 11:37:55;;;;;;;5.83;2.10;;;32.80;99.90;;;;;;5033114;28;20451;-78
2022/08/10 11:40:28;;;;;;;4.00;1.90;;;32.80;99.90;;;;;;5050025;28;20459;-78
2022/08/10 11:43:02;;;;;;;2.63;1.53;;;33.00;99.90;;;;;;5054478;28;20471;-78
2022/08/10 11:45:35;;;;;;;4.30;2.33;;;33.10;99.10;;;;;;5050506;28;20447;-78
2022/08/10 11:48:10;;;;;;;3.80;1.50;;;33.30;99.90;;;;;;5051742;28;20487;-78
2022/08/10 11:50:47;;;;;;;4.40;2.20;;;33.60;99.90;;;;;;5048103;28;20542;-79
2022/08/10 11:53:26;;;;;;;5.33;2.03;;;33.40;99.60;;;;;;5052500;28;20510;-78
2022/08/10 11:55:56;;;;;;;4.40;2.00;;;33.80;99.90;;;;;;5049258;28;20490;-80
2022/08/10 12:01:13;;;;;;;3.37;2.03;;;34.20;99.90;;;;;;5049137;28;20845;-78
2022/08/10 12:03:43;;;;;;;3.70;1.80;;;34.30;98.70;;;;;;5049233;28;20563;-78
2022/08/10 12:06:13;;;;;;;3.93;1.83;;;34.60;91.60;;;;;;5046781;28;20448;-79
2022/08/10 12:08:43;;;;;;;3.00;1.97;;;34.40;91.10;;;;;;5050130;28;20558;-79
2022/08/10 12:11:12;;;;;;;3.73;2.03;;;34.40;96.20;;;;;;5050463;28;20475;-79
2022/08/10 12:13:46;;;;;;;5.13;1.90;;;34.30;93.00;;;;;;5050079;28;20487;-78
2022/08/10 12:16:18;;;;;;;3.60;2.27;;;34.20;89.00;;;;;;5051748;28;20448;-78
2022/08/10 12:18:48;;;;;;;3.53;2.20;;;34.70;90.20;;;;;;5055304;28;21011;-77
2022/08/10 12:21:20;;;;;;;3.50;2.40;;;34.60;92.40;;;;;;5054070;28;20490;-77
2022/08/10 12:23:55;;;;;;;4.30;2.03;;;34.50;90.90;;;;;;5056652;28;20456;-77
2022/08/10 12:26:26;;;;;;;5.10;2.00;;;34.80;90.40;;;;;;5056511;28;20446;-78
2022/08/10 12:29:01;;;;;;;4.70;2.20;;;34.70;97.10;;;;;;5050916;28;20495;-78
2022/08/10 12:31:35;;;;;;;5.60;2.13;;;34.90;93.40;;;;;;5049593;28;20462;-77
2022/08/10 12:34:16;;;;;;;4.73;2.00;;;35.20;95.10;;;;;;5054014;28;20452;-79
2022/08/10 12:36:47;;;;;;;4.00;2.27;;;35.10;94.30;;;;;;5052269;28;20527;-78
2022/08/10 12:39:18;;;;;;;5.13;2.13;;;34.90;95.10;;;;;;5047354;28;20980;-78
2022/08/10 12:41:52;;;;;;;5.40;1.80;;;35.10;91.60;;;;;;5042424;28;20536;-78
2022/08/10 12:44:33;;;;;;;4.60;2.23;;;35.20;88.40;;;;;;5052589;28;20538;-78
2022/08/10 12:47:06;;;;;;;4.43;2.23;;;35.10;84.00;;;;;;5047775;28;20884;-77
2022/08/10 12:49:39;;;;;;;5.23;2.33;;;34.90;90.60;;;;;;5045133;28;20578;-78
2022/08/10 12:52:18;;;;;;;7.33;2.00;;;35.60;95.40;;;;;;5065386;28;20509;-78
2022/08/10 12:54:46;;;;;;;6.97;2.10;;;35.60;85.00;;;;;;5067939;28;20546;-77
2022/08/10 12:57:16;;;;;;;7.30;2.20;;;35.60;79.00;;;;;;5060562;28;20448;-78
2022/08/10 12:59:44;;;;;;;2.63;1.50;;;35.80;87.30;;;;;;5053047;28;20503;-78
2022/08/10 13:02:21;;;;;;;3.10;2.20;;;36.00;89.40;;;;;;5057925;28;20456;-78
2022/08/10 13:04:50;;;;;;;3.30;2.00;;;35.20;79.60;;;;;;5068637;28;20856;-78
2022/08/10 13:07:25;;;;;;;4.30;2.07;;;34.90;80.80;;;;;;5072640;28;20447;-78
2022/08/10 13:09:52;;;;;;;4.10;1.87;;;35.20;78.80;;;;;;5073620;28;20912;-78
2022/08/10 13:12:22;;;;;;;4.57;1.90;;;35.20;75.20;;;;;;5073170;28;20546;-78
2022/08/10 13:14:54;;;;;;;3.50;1.73;;;35.20;82.00;;;;;;5070784;28;20545;-77
2022/08/10 13:17:27;;;;;;;5.70;1.83;;;35.00;86.10;;;;;;5052520;28;20463;-78
2022/08/10 13:19:55;;;;;;;3.97;2.03;;;35.50;80.80;;;;;;5063599;28;20558;-78
2022/08/10 13:22:25;;;;;;;3.47;1.73;;;35.70;82.20;;;;;;5059279;28;21023;-78